Terminal Aerodrome Forecast
Issued by NWS Jackson, MS

Home | Current Version | Previous Version | Text Only | Print | Product List | Glossary On
Versions: 1 2 3 4 5 6 7 8 9 10 11 12 13 14 15 16 17 18
000
FTUS44 KJAN 191200 AAC
TAFJAN
TAF AMD
KJAN 191230Z 1913/2012 00000KT 4SM BR FEW002
     FM191330 36008KT P6SM FEW250
     FM200100 01002KT P6SM SKC=

USA.gov is the U.S. government's official web portal to all federal, state and local government web resources and services.